Time;durP1;ratioP1;P1;durP2;ratioP2;P2;SDS_P1;SDS_P2;PMS_P1;PMS_P2;Temp;Humidity;BMP_temperature;BMP_pressure;BME280_temperature;BME280_humidity;BME280_pressure;Samples;Min_cycle;Max_cycle;Signal;HPM_P1;HPM_P2
2022/09/12 00:01:31;;;;;;;12.50;11.30;;;;;;;14.42;100.00;101628.31;5255509;28;20024;-76
2022/09/12 00:04:02;;;;;;;17.00;13.00;;;;;;;14.47;100.00;101622.75;5255603;28;20033;-75
2022/09/12 00:06:35;;;;;;;14.10;12.23;;;;;;;14.40;100.00;101633.69;5255166;28;20032;-75
2022/09/12 00:09:10;;;;;;;13.30;12.00;;;;;;;14.39;100.00;101615.31;5254089;28;20476;-75
2022/09/12 00:11:44;;;;;;;15.10;11.47;;;;;;;14.40;100.00;101623.13;5254669;28;20036;-76
2022/09/12 00:14:17;;;;;;;14.05;12.60;;;;;;;14.31;100.00;101615.84;5254615;28;20048;-76
2022/09/12 00:16:48;;;;;;;15.63;13.00;;;;;;;14.20;100.00;101613.00;5254657;28;20029;-75
2022/09/12 00:19:19;;;;;;;15.60;13.87;;;;;;;14.31;100.00;101604.44;5253567;28;20032;-76
2022/09/12 00:21:51;;;;;;;15.60;13.33;;;;;;;14.16;100.00;101615.00;5255121;28;20029;-74
2022/09/12 00:24:22;;;;;;;15.23;13.40;;;;;;;14.21;100.00;101602.38;5255104;28;20383;-74
2022/09/12 00:26:54;;;;;;;15.73;14.00;;;;;;;14.11;100.00;101609.16;5254667;28;20068;-75
2022/09/12 00:29:25;;;;;;;15.33;13.33;;;;;;;14.17;100.00;101608.81;5253805;28;20036;-76
2022/09/12 00:31:56;;;;;;;14.23;12.83;;;;;;;14.05;100.00;101602.50;5255190;28;20029;-76
2022/09/12 00:34:27;;;;;;;13.83;12.47;;;;;;;14.17;100.00;101603.53;5252871;28;20480;-76
2022/09/12 00:36:59;;;;;;;15.57;13.53;;;;;;;14.15;100.00;101602.78;5253439;28;20519;-75
2022/09/12 00:39:30;;;;;;;15.50;13.67;;;;;;;13.94;100.00;101592.66;5254267;28;20025;-75
2022/09/12 00:42:02;;;;;;;14.00;12.57;;;;;;;13.93;100.00;101598.84;5254066;28;20422;-76
2022/09/12 00:44:33;;;;;;;16.03;14.27;;;;;;;13.90;100.00;101599.03;5254361;28;20515;-75
2022/09/12 00:47:04;;;;;;;16.57;14.30;;;;;;;13.93;100.00;101598.00;5253381;28;20472;-75
2022/09/12 00:49:44;;;;;;;18.40;14.47;;;;;;;13.94;100.00;101599.69;5253817;28;20029;-75
2022/09/12 00:52:22;;;;;;;15.33;13.50;;;;;;;13.89;100.00;101587.66;5254527;28;20032;-75
2022/09/12 00:55:10;;;;;;;14.83;13.33;;;;;;;14.03;100.00;101599.13;5254289;28;20111;-74
2022/09/12 00:57:56;;;;;;;19.43;12.87;;;;;;;13.96;100.00;101595.19;5251963;28;20029;-75
2022/09/12 01:00:28;;;;;;;18.10;13.67;;;;;;;14.05;100.00;101583.22;5253563;28;20064;-76
2022/09/12 01:03:04;;;;;;;16.43;13.83;;;;;;;13.86;100.00;101587.03;5254429;28;20057;-74
2022/09/12 01:05:39;;;;;;;15.80;14.10;;;;;;;13.93;100.00;101583.03;5255210;28;20048;-75
2022/09/12 01:08:11;;;;;;;15.47;13.93;;;;;;;13.67;100.00;101583.72;5254441;28;20108;-75
2022/09/12 01:10:42;;;;;;;16.90;14.77;;;;;;;13.62;100.00;101574.41;5251833;28;20436;-76
2022/09/12 01:13:14;;;;;;;15.70;14.17;;;;;;;13.76;100.00;101571.78;5252949;28;20137;-73
2022/09/12 01:15:45;;;;;;;17.10;15.17;;;;;;;13.61;100.00;101559.56;5253624;28;20041;-74
2022/09/12 01:18:22;;;;;;;17.30;15.10;;;;;;;13.72;100.00;101570.28;5253915;28;20025;-75
2022/09/12 01:21:17;;;;;;;16.13;14.20;;;;;;;13.71;100.00;101570.38;5252522;28;20033;-74
2022/09/12 01:24:13;;;;;;;16.98;15.18;;;;;;;13.79;100.00;101568.94;5253889;28;20033;-76
2022/09/12 01:27:10;;;;;;;17.17;15.37;;;;;;;13.68;100.00;101571.41;5252458;28;20048;-74
2022/09/12 01:30:15;;;;;;;17.03;14.93;;;;;;;13.66;100.00;101561.00;5253772;28;20099;-76
2022/09/12 01:33:08;;;;;;;20.55;17.30;;;;;;;13.65;100.00;101553.16;5252258;28;20072;-76
2022/09/12 01:35:42;;;;;;;22.00;18.20;;;;;;;13.49;100.00;101559.34;5252992;28;20517;-74
2022/09/12 01:38:41;;;;;;;21.58;16.98;;;;;;;13.84;100.00;101562.56;5252520;28;20717;-75
2022/09/12 01:41:25;;;;;;;19.63;17.17;;;;;;;13.47;100.00;101558.59;5253763;28;20029;-76
2022/09/12 01:44:32;;;;;;;19.83;17.90;;;;;;;13.67;100.00;101548.66;5251402;28;20025;-74
2022/09/12 01:47:15;;;;;;;20.27;18.10;;;;;;;13.57;100.00;101551.00;5246085;28;20045;-74
2022/09/12 01:50:01;;;;;;;19.33;17.37;;;;;;;13.84;100.00;101557.31;5251855;28;20459;-75
2022/09/12 01:52:56;;;;;;;21.50;19.07;;;;;;;13.66;100.00;101555.72;5253434;28;20032;-76
2022/09/12 01:55:50;;;;;;;20.52;18.52;;;;;;;13.57;100.00;101548.38;5252125;28;20025;-75
2022/09/12 01:58:28;;;;;;;20.53;18.37;;;;;;;13.50;100.00;101549.66;5252072;28;20029;-75
2022/09/12 02:01:06;;;;;;;21.87;19.67;;;;;;;13.51;100.00;101536.41;5253380;28;20032;-76
2022/09/12 02:03:53;;;;;;;21.53;19.33;;;;;;;13.50;100.00;101528.59;5252844;28;20028;-74
2022/09/12 02:06:33;;;;;;;22.33;20.03;;;;;;;13.43;100.00;101529.00;5253358;28;20029;-75
2022/09/12 02:09:34;;;;;;;21.23;19.03;;;;;;;13.43;100.00;101529.00;5253565;28;20056;-75
2022/09/12 02:12:10;;;;;;;20.83;18.73;;;;;;;13.25;100.00;101520.44;5254249;28;20029;-75
2022/09/12 02:14:48;;;;;;;22.10;19.20;;;;;;;13.31;100.00;101520.06;5256856;28;20041;-75
2022/09/12 02:17:22;;;;;;;24.20;19.53;;;;;;;13.10;100.00;101498.53;5257459;28;20106;-76
2022/09/12 02:20:15;;;;;;;20.75;18.65;;;;;;;13.44;100.00;101519.28;5257140;28;20021;-74
2022/09/12 02:22:48;;;;;;;22.20;19.23;;;;;;;13.27;100.00;101529.06;5257305;28;20569;-74
2022/09/12 02:25:21;;;;;;;23.20;19.00;;;;;;;13.18;100.00;101527.84;5256930;28;20111;-75
2022/09/12 02:28:05;;;;;;;22.80;20.50;;;;;;;13.22;100.00;101518.00;5256679;28;20041;-74
2022/09/12 02:30:49;;;;;;;21.42;19.33;;;;;;;13.17;100.00;101534.06;5256809;28;20712;-75
2022/09/12 02:33:35;;;;;;;22.27;19.50;;;;;;;13.20;100.00;101527.75;5257206;28;20060;-75
2022/09/12 02:36:45;;;;;;;21.50;18.97;;;;;;;13.41;100.00;101532.66;5257456;28;20029;-74
2022/09/12 02:39:20;;;;;;;20.50;18.37;;;;;;;13.09;100.00;101531.00;5257356;28;20057;-75
2022/09/12 02:41:57;;;;;;;23.90;20.17;;;;;;;13.15;100.00;101524.56;5255893;28;20032;-73
2022/09/12 02:44:30;;;;;;;22.63;18.80;;;;;;;13.10;100.00;101523.97;5256737;28;20033;-73
2022/09/12 02:47:10;;;;;;;20.47;18.37;;;;;;;13.13;100.00;101526.41;5256654;28;20025;-74
2022/09/12 02:49:41;;;;;;;23.27;18.83;;;;;;;13.15;100.00;101525.41;5256905;28;20049;-74
2022/09/12 02:52:13;;;;;;;24.27;19.40;;;;;;;13.06;100.00;101521.53;5256920;28;20063;-75
2022/09/12 02:54:46;;;;;;;21.90;19.60;;;;;;;12.98;100.00;101509.78;5256427;28;20082;-75
2022/09/12 02:57:19;;;;;;;21.13;19.13;;;;;;;13.08;100.00;101513.56;5255446;28;20028;-73
2022/09/12 02:59:54;;;;;;;22.53;18.97;;;;;;;12.98;100.00;101507.16;5256964;28;20515;-75
2022/09/12 03:02:53;;;;;;;23.63;21.13;;;;;;;13.17;100.00;101497.25;5256035;28;20128;-75
2022/09/12 03:05:30;;;;;;;21.17;19.10;;;;;;;13.04;100.00;101502.38;5256593;28;20029;-74
2022/09/12 03:08:44;;;;;;;23.07;20.63;;;;;;;13.09;100.00;101503.91;5256528;28;20102;-74
2022/09/12 03:11:25;;;;;;;23.63;20.17;;;;;;;13.03;100.00;101503.31;5255316;28;20029;-75
2022/09/12 03:14:12;;;;;;;21.07;18.97;;;;;;;13.03;100.00;101503.31;5255053;28;20045;-73
2022/09/12 03:17:06;;;;;;;22.03;18.50;;;;;;;13.05;100.00;101490.94;5255750;28;20029;-74
2022/09/12 03:20:00;;;;;;;22.10;19.20;;;;;;;13.00;100.00;101500.88;5254732;28;20697;-74
2022/09/12 03:22:52;;;;;;;22.20;19.85;;;;;;;13.13;100.00;101492.22;5255971;28;20033;-75
2022/09/12 03:25:33;;;;;;;22.83;20.40;;;;;;;12.91;100.00;101490.91;5254606;28;20033;-75
2022/09/12 03:28:08;;;;;;;22.13;19.73;;;;;;;12.86;100.00;101495.59;5255250;28;20031;-75
2022/09/12 03:30:46;;;;;;;21.57;19.33;;;;;;;13.01;100.00;101497.31;5255424;28;20104;-74
2022/09/12 03:33:19;;;;;;;22.20;19.20;;;;;;;12.85;100.00;101496.50;5254522;28;20025;-73
2022/09/12 03:35:52;;;;;;;21.50;19.10;;;;;;;12.85;100.00;101488.63;5255979;28;20033;-74
2022/09/12 03:38:23;;;;;;;22.23;19.57;;;;;;;12.88;100.00;101491.91;5256239;28;20086;-74
2022/09/12 03:40:54;;;;;;;22.87;20.40;;;;;;;12.87;100.00;101492.88;5255689;28;20025;-74
2022/09/12 03:43:25;;;;;;;20.63;18.43;;;;;;;12.77;100.00;101486.47;5254558;28;20033;-75
2022/09/12 03:45:57;;;;;;;25.57;20.83;;;;;;;12.81;100.00;101490.63;5255175;28;20037;-73
2022/09/12 03:48:30;;;;;;;24.00;21.50;;;;;;;12.78;100.00;101496.88;5255641;28;20024;-74
2022/09/12 03:51:04;;;;;;;22.33;20.10;;;;;;;13.04;100.00;101494.50;5254441;28;20033;-74
2022/09/12 03:53:35;;;;;;;25.27;20.10;;;;;;;12.90;100.00;101491.81;5254919;28;20563;-75
2022/09/12 03:56:09;;;;;;;25.17;20.97;;;;;;;12.80;100.00;101481.88;5255445;28;20108;-75
2022/09/12 03:58:40;;;;;;;24.07;19.83;;;;;;;12.86;100.00;101485.06;5254085;28;20044;-75
2022/09/12 04:01:14;;;;;;;25.17;21.40;;;;;;;12.86;100.00;101479.81;5254043;28;20029;-74
2022/09/12 04:03:48;;;;;;;25.50;20.48;;;;;;;12.93;100.00;101484.59;5254004;28;20028;-74
2022/09/12 04:06:21;;;;;;;24.75;22.00;;;;;;;12.88;100.00;101484.03;5254182;28;20017;-75
2022/09/12 04:08:53;;;;;;;26.50;22.53;;;;;;;12.67;100.00;101478.28;5258328;28;20029;-74
2022/09/12 04:11:24;;;;;;;24.27;21.20;;;;;;;12.75;100.00;101467.31;5253902;28;20103;-76
2022/09/12 04:13:56;;;;;;;25.27;22.17;;;;;;;12.66;100.00;101460.81;5253391;28;20124;-75
2022/09/12 04:16:27;;;;;;;24.97;22.33;;;;;;;12.73;100.00;101466.53;5254318;28;20746;-75
2022/09/12 04:18:58;;;;;;;22.53;20.07;;;;;;;12.81;100.00;101465.16;5254777;28;20383;-74
2022/09/12 04:21:29;;;;;;;24.83;22.13;;;;;;;12.83;100.00;101463.28;5254304;28;20037;-75
2022/09/12 04:24:01;;;;;;;23.70;21.20;;;;;;;12.86;100.00;101462.28;5255061;28;20056;-74
2022/09/12 04:26:32;;;;;;;26.27;20.87;;;;;;;12.79;100.00;101461.75;5253410;28;20044;-75
2022/09/12 04:29:04;;;;;;;28.67;22.43;;;;;;;12.83;100.00;101462.44;5254626;28;20069;-74
2022/09/12 04:31:35;;;;;;;25.83;23.13;;;;;;;12.85;100.00;101449.19;5255058;28;20044;-74
2022/09/12 04:34:07;;;;;;;26.27;22.83;;;;;;;12.87;100.00;101456.06;5252840;28;20029;-75
2022/09/12 04:36:38;;;;;;;25.57;22.27;;;;;;;12.84;100.00;101464.13;5254792;28;20032;-75
2022/09/12 04:39:10;;;;;;;26.77;22.33;;;;;;;12.89;100.00;101451.56;5254666;28;20771;-75
2022/09/12 04:41:42;;;;;;;23.17;20.77;;;;;;;12.86;100.00;101450.91;5253457;28;20558;-75
2022/09/12 04:44:14;;;;;;;26.90;22.60;;;;;;;12.87;100.00;101452.59;5253734;28;20071;-75
2022/09/12 04:46:46;;;;;;;26.87;23.07;;;;;;;12.87;100.00;101444.69;5253280;28;20036;-73
2022/09/12 04:49:18;;;;;;;25.50;22.47;;;;;;;12.88;100.00;101435.88;5252794;28;20037;-74
2022/09/12 04:51:52;;;;;;;32.13;24.83;;;;;;;12.88;100.00;101441.97;5253950;28;20100;-75
2022/09/12 04:54:23;;;;;;;27.55;23.27;;;;;;;12.98;100.00;101444.06;5254242;28;20044;-75
2022/09/12 04:56:55;;;;;;;27.93;22.60;;;;;;;12.81;100.00;101448.56;5253519;28;20105;-74
2022/09/12 04:59:26;;;;;;;25.93;23.13;;;;;;;12.88;100.00;101436.72;5257855;28;20025;-75
2022/09/12 05:01:58;;;;;;;25.60;22.93;;;;;;;13.00;100.00;101447.44;5254613;28;20059;-75
2022/09/12 05:04:30;;;;;;;24.70;22.10;;;;;;;12.88;100.00;101444.59;5254528;28;20094;-75
2022/09/12 05:07:02;;;;;;;25.93;23.13;;;;;;;12.89;100.00;101445.47;5254274;28;20476;-75
2022/09/12 05:09:33;;;;;;;30.70;23.23;;;;;;;12.92;100.00;101445.25;5254439;28;20021;-74
2022/09/12 05:12:06;;;;;;;28.50;22.50;;;;;;;12.87;100.00;101447.31;5253661;28;20129;-75
2022/09/12 05:14:37;;;;;;;30.23;24.00;;;;;;;12.83;100.00;101444.88;5255596;28;20048;-75
2022/09/12 05:17:08;;;;;;;29.20;23.27;;;;;;;12.95;100.00;101450.38;5252603;28;20540;-75
2022/09/12 05:19:39;;;;;;;26.43;23.60;;;;;;;12.90;100.00;101455.03;5254027;28;20483;-73
2022/09/12 05:22:11;;;;;;;27.97;24.03;;;;;;;12.80;100.00;101458.22;5254231;28;20497;-75
2022/09/12 05:24:43;;;;;;;28.53;25.43;;;;;;;12.94;100.00;101452.13;5253305;28;20029;-74
2022/09/12 05:27:15;;;;;;;27.73;24.03;;;;;;;12.99;100.00;101456.25;5250849;28;20052;-75
2022/09/12 05:29:46;;;;;;;28.17;23.43;;;;;;;12.93;100.00;101447.78;5252780;28;20063;-75
2022/09/12 05:32:17;;;;;;;28.77;23.00;;;;;;;12.93;100.00;101442.53;5252554;28;20055;-74
2022/09/12 05:34:49;;;;;;;25.53;22.47;;;;;;;13.04;100.00;101457.66;5253619;28;20388;-74
2022/09/12 05:37:21;;;;;;;29.80;24.73;;;;;;;12.94;100.00;101446.03;5252152;28;20094;-75
2022/09/12 05:39:52;;;;;;;27.33;24.23;;;;;;;12.93;100.00;101441.72;5253469;28;20032;-75
2022/09/12 05:42:23;;;;;;;26.60;23.80;;;;;;;13.12;100.00;101451.09;5252133;28;20025;-75
2022/09/12 05:44:54;;;;;;;27.47;24.43;;;;;;;13.10;100.00;101452.97;5253579;28;20033;-75
2022/09/12 05:47:26;;;;;;;29.60;24.03;;;;;;;13.03;100.00;101456.00;5252064;28;20064;-74
2022/09/12 05:49:58;;;;;;;27.47;24.20;;;;;;;13.06;100.00;101447.91;5252046;28;20041;-75
2022/09/12 05:52:31;;;;;;;29.17;23.87;;;;;;;13.13;100.00;101465.94;5251043;28;20029;-73
2022/09/12 05:55:03;;;;;;;28.10;24.03;;;;;;;13.30;100.00;101464.91;5252989;28;20526;-75
2022/09/12 05:57:35;;;;;;;26.97;22.77;;;;;;;13.17;100.00;101460.41;5252101;28;20033;-77
2022/09/12 06:00:08;;;;;;;26.27;22.97;;;;;;;13.11;100.00;101449.44;5253427;28;20942;-78
2022/09/12 06:02:40;;;;;;;29.63;24.90;;;;;;;13.38;100.00;101472.34;5251655;28;20033;-75
2022/09/12 06:05:11;;;;;;;27.47;21.83;;;;;;;13.31;100.00;101470.09;5252603;28;20397;-77
2022/09/12 06:07:44;;;;;;;25.77;22.63;;;;;;;13.27;100.00;101473.84;5242065;28;20025;-76
2022/09/12 06:10:16;;;;;;;26.83;22.23;;;;;;;13.41;100.00;101473.00;5244954;28;20045;-76
2022/09/12 06:12:48;;;;;;;35.27;23.70;;;;;;;13.49;100.00;101479.56;5248263;28;20306;-82
2022/09/12 06:15:19;;;;;;;26.37;23.60;;;;;;;13.47;100.00;101479.66;5249128;28;20083;-78
2022/09/12 06:17:51;;;;;;;32.27;23.63;;;;;;;13.49;100.00;101469.88;5244719;28;20028;-80
2022/09/12 06:20:22;;;;;;;26.43;23.17;;;;;;;13.66;100.00;101475.91;5245725;28;20082;-78
2022/09/12 06:22:53;;;;;;;31.13;23.00;;;;;;;13.56;100.00;101457.22;5248275;28;20033;-79
2022/09/12 06:25:25;;;;;;;33.90;23.10;;;;;;;13.53;100.00;101468.78;5247469;28;20071;-78
2022/09/12 06:27:56;;;;;;;35.20;23.40;;;;;;;13.53;100.00;101471.41;5248825;28;20056;-82
2022/09/12 06:30:27;;;;;;;32.03;22.70;;;;;;;13.66;100.00;101466.22;5244613;28;21759;-82
2022/09/12 06:32:59;;;;;;;35.03;22.20;;;;;;;13.51;100.00;101457.47;5251081;28;20509;-79
2022/09/12 06:35:34;;;;;;;29.53;23.10;;;;;;;13.53;100.00;101453.00;5248108;28;20056;-80
2022/09/12 06:38:05;;;;;;;29.53;22.77;;;;;;;13.55;100.00;101459.00;5244851;28;20391;-76
2022/09/12 06:40:45;;;;;;;30.37;22.67;;;;;;;13.72;100.00;101461.53;5250913;28;20098;-85
2022/09/12 06:43:16;;;;;;;30.67;22.73;;;;;;;13.72;100.00;101466.78;5245351;28;20395;-81
2022/09/12 06:45:51;;;;;;;24.17;21.67;;;;;;;13.92;100.00;101465.50;5247380;28;20037;-76
2022/09/12 06:48:22;;;;;;;25.53;20.50;;;;;;;14.00;100.00;101463.22;5246647;28;20048;-86
2022/09/12 06:50:55;;;;;;;25.27;21.07;;;;;;;14.00;100.00;101457.94;5248501;28;20033;-82
2022/09/12 06:53:27;;;;;;;36.97;21.83;;;;;;;14.02;100.00;101461.31;5250041;28;20037;-83
2022/09/12 06:56:01;;;;;;;24.03;20.13;;;;;;;14.09;100.00;101451.25;5249326;28;20124;-81
2022/09/12 06:58:33;;;;;;;22.43;20.07;;;;;;;14.01;100.00;101462.28;5251694;28;20028;-82
2022/09/12 07:01:09;;;;;;;22.43;19.93;;;;;;;14.23;100.00;101460.88;5251252;28;20065;-79
2022/09/12 07:03:42;;;;;;;26.60;20.63;;;;;;;14.19;100.00;101461.19;5252902;28;20033;-85
2022/09/12 07:06:15;;;;;;;26.30;20.00;;;;;;;14.13;100.00;101463.28;5254103;28;20051;-75
2022/09/12 07:08:47;;;;;;;23.80;21.30;;;;;;;14.18;100.00;101460.31;5249668;28;20029;-78
2022/09/12 07:11:21;;;;;;;23.73;20.50;;;;;;;14.26;100.00;101460.66;5252790;28;20404;-80
2022/09/12 07:13:55;;;;;;;22.35;20.05;;;;;;;14.39;100.00;101457.22;5250329;28;20049;-81
2022/09/12 07:16:27;;;;;;;22.98;20.00;;;;;;;14.43;100.00;101458.72;5252494;28;20017;-80
2022/09/12 07:19:01;;;;;;;22.67;19.97;;;;;;;14.57;100.00;101462.22;5250866;28;20513;-80
2022/09/12 07:21:35;;;;;;;23.55;20.95;;;;;;;14.54;100.00;101455.34;5254033;28;20021;-81
2022/09/12 07:24:08;;;;;;;22.70;20.23;;;;;;;14.59;100.00;101457.69;5251959;28;20029;-80
2022/09/12 07:26:40;;;;;;;28.08;20.80;;;;;;;14.72;100.00;101453.28;5253040;28;20036;-82
2022/09/12 07:29:17;;;;;;;20.37;18.27;;;;;;;14.80;100.00;101454.53;5251075;28;20033;-83
2022/09/12 07:31:48;;;;;;;22.63;20.23;;;;;;;14.92;100.00;101447.63;5254073;28;20033;-81
2022/09/12 07:34:19;;;;;;;25.80;18.97;;;;;;;15.05;100.00;101453.72;5253371;28;20464;-80
2022/09/12 07:36:51;;;;;;;22.50;19.90;;;;;;;15.22;100.00;101447.25;5247720;28;20037;-80
2022/09/12 07:39:22;;;;;;;21.00;18.70;;;;;;;15.45;100.00;101455.34;5251252;28;20160;-80
2022/09/12 07:41:53;;;;;;;22.67;19.57;;;;;;;15.58;100.00;101443.91;5251696;28;20041;-81
2022/09/12 07:44:25;;;;;;;19.60;17.57;;;;;;;15.84;100.00;101455.25;5253199;28;20028;-82
2022/09/12 07:46:56;;;;;;;21.97;18.87;;;;;;;16.24;100.00;101465.66;5252688;28;20361;-83
2022/09/12 07:49:28;;;;;;;21.90;17.83;;;;;;;16.61;100.00;101441.75;5250897;28;20017;-79
2022/09/12 07:51:59;;;;;;;18.80;16.80;;;;;;;17.42;100.00;101453.19;5253494;28;20363;-80
2022/09/12 07:54:32;;;;;;;17.53;15.83;;;;;;;18.21;100.00;101445.19;5253679;28;20070;-82
2022/09/12 07:57:03;;;;;;;16.60;14.77;;;;;;;19.01;100.00;101455.28;5251448;28;20120;-82
2022/09/12 07:59:34;;;;;;;18.30;15.07;;;;;;;19.55;100.00;101460.41;5248249;28;20025;-82
2022/09/12 08:02:10;;;;;;;19.27;14.13;;;;;;;20.68;100.00;101460.97;5252744;28;20025;-83
2022/09/12 08:04:41;;;;;;;17.10;13.60;;;;;;;21.01;93.96;101453.50;5253476;28;20021;-83
2022/09/12 08:07:13;;;;;;;14.48;13.07;;;;;;;21.77;88.71;101447.16;5245582;28;20102;-84
2022/09/12 08:09:45;;;;;;;16.98;11.95;;;;;;;22.63;85.84;101457.41;5249765;28;20040;-83
2022/09/12 08:12:16;;;;;;;13.00;11.70;;;;;;;22.74;84.12;101448.28;5251443;28;20032;-81
2022/09/12 08:14:48;;;;;;;14.73;12.38;;;;;;;23.81;77.15;101462.19;5254608;28;20799;-82
2022/09/12 08:17:19;;;;;;;12.85;11.27;;;;;;;24.15;70.70;101457.69;5251666;28;20029;-84
2022/09/12 08:19:51;;;;;;;12.30;11.10;;;;;;;24.19;67.64;101460.91;5246759;28;20112;-81
2022/09/12 08:22:23;;;;;;;17.58;11.88;;;;;;;24.76;59.45;101468.00;5251590;28;21317;-84
2022/09/12 08:24:54;;;;;;;12.15;10.80;;;;;;;25.12;57.33;101466.75;5251464;28;20091;-83
2022/09/12 08:27:25;;;;;;;13.27;10.63;;;;;;;25.62;56.10;101453.06;5250355;28;20041;-81
2022/09/12 08:29:56;;;;;;;19.55;11.05;;;;;;;25.71;54.77;101469.97;5249383;28;20048;-84
2022/09/12 08:32:28;;;;;;;13.27;10.30;;;;;;;25.73;54.80;101469.78;5248587;28;20049;-77
2022/09/12 08:34:59;;;;;;;11.88;9.40;;;;;;;26.63;53.24;101471.91;5249890;28;20551;-80
2022/09/12 08:37:30;;;;;;;12.45;10.38;;;;;;;27.51;50.73;101482.94;5250519;28;20064;-83
2022/09/12 08:40:05;;;;;;;12.55;10.38;;;;;;;27.48;50.42;101473.41;5249948;28;20029;-80
2022/09/12 08:43:13;;;;;;;14.82;10.60;;;;;;;28.70;52.63;101476.31;5248742;28;20021;-85
2022/09/12 08:45:57;;;;;;;11.38;9.70;;;;;;;28.40;50.98;101482.75;5250725;28;20513;-84
2022/09/12 08:48:28;;;;;;;10.30;9.25;;;;;;;28.80;47.84;101481.34;5245829;28;20474;-85
2022/09/12 08:51:00;;;;;;;11.98;9.40;;;;;;;29.13;45.26;101478.00;5250016;28;20020;-87
2022/09/12 08:53:34;;;;;;;10.70;9.68;;;;;;;29.99;43.62;101472.16;5249260;28;20024;-88
2022/09/12 08:56:10;;;;;;;10.90;7.93;;;;;;;30.37;43.11;101470.72;5246522;28;20087;-89
2022/09/12 08:58:44;;;;;;;10.50;9.25;;;;;;;30.59;41.60;101469.63;5250215;28;20479;-82
2022/09/12 09:01:37;;;;;;;11.90;7.72;;;;;;;31.40;43.46;101458.50;5255438;28;20082;-86
2022/09/12 09:04:47;;;;;;;7.77;6.97;;;;;;;31.72;41.96;101463.94;5251289;28;20029;-88
2022/09/12 09:07:29;;;;;;;9.23;7.80;;;;;;;31.34;38.78;101465.63;5251179;28;20276;-87
2022/09/12 09:10:21;;;;;;;10.35;8.80;;;;;;;31.75;40.11;101449.94;5249512;28;20040;-87
2022/09/12 09:14:46;;;;;;;7.57;6.65;;;;;;;31.91;40.79;101455.06;5249996;28;20051;-87
2022/09/12 09:16:22;;;;;;;6.82;6.18;;;;;;;32.89;38.55;101453.66;5251151;28;20036;-84
2022/09/12 09:18:56;;;;;;;7.80;5.80;;;;;;;32.77;35.30;101449.00;5249703;28;20037;-89
2022/09/12 09:21:48;;;;;;;5.38;4.85;;;;;;;33.66;36.17;101448.66;5250418;28;20380;-89
2022/09/12 09:24:25;;;;;;;8.07;6.00;;;;;;;33.29;34.38;101455.84;5246689;28;20040;-82
2022/09/12 09:27:04;;;;;;;7.03;5.75;;;;;;;33.65;34.23;101441.56;5251114;28;20056;-89
2022/09/12 09:29:43;;;;;;;6.65;5.20;;;;;;;33.89;33.92;101447.84;5248013;28;20021;-85
2022/09/12 09:32:24;;;;;;;7.18;6.20;;;;;;;33.53;33.85;101445.06;5249951;28;20021;-78
2022/09/12 09:34:55;;;;;;;5.95;5.35;;;;;;;34.15;32.37;101444.88;5249348;28;20029;-83
2022/09/12 09:37:47;;;;;;;5.75;5.05;;;;;;;34.41;33.43;101445.47;5250014;28;20078;-87
2022/09/12 09:40:23;;;;;;;6.82;5.30;;;;;;;34.12;32.36;101434.50;5244695;28;20483;-82
2022/09/12 09:42:58;;;;;;;5.63;4.60;;;;;;;34.07;32.81;101442.53;5248524;28;20021;-88
2022/09/12 09:45:30;;;;;;;7.30;5.60;;;;;;;34.00;31.76;101443.47;5250163;28;20040;-82
2022/09/12 09:48:01;;;;;;;5.68;5.07;;;;;;;34.43;30.63;101432.47;5251575;28;20025;-89
2022/09/12 09:50:32;;;;;;;6.78;5.15;;;;;;;34.22;30.26;101429.31;5247206;28;20020;-87
2022/09/12 09:53:12;;;;;;;6.82;4.80;;;;;;;35.00;31.10;101425.47;5251346;28;20029;-80
2022/09/12 09:55:44;;;;;;;8.10;4.97;;;;;;;34.95;30.67;101417.19;5244232;28;20120;-85
2022/09/12 09:58:29;;;;;;;5.10;4.60;;;;;;;35.59;31.36;101409.84;5250919;28;20108;-85
2022/09/12 10:01:10;;;;;;;8.18;4.25;;;;;;;34.42;30.87;101417.25;5248712;28;20115;-87
2022/09/12 10:03:55;;;;;;;5.03;4.35;;;;;;;36.06;30.31;101409.75;5249120;28;20466;-90
2022/09/12 10:06:31;;;;;;;4.63;3.70;;;;;;;36.26;28.87;101405.63;5250003;28;20037;-75
2022/09/12 10:09:17;;;;;;;4.88;3.95;;;;;;;36.51;29.91;101398.88;5248109;28;20033;-76
2022/09/12 10:11:50;;;;;;;10.70;3.60;;;;;;;36.45;29.11;101403.44;5247671;28;20084;-76
2022/09/12 10:14:25;;;;;;;;;;;;;;;37.81;29.51;101408.25;5249145;28;20071;-77
2022/09/12 10:16:57;;;;;;;6.63;3.83;;;;;;;35.67;27.61;101395.00;5251501;28;19913;-81
2022/09/12 10:19:39;;;;;;;4.95;3.47;;;;;;;36.72;28.47;101390.91;5247296;28;20036;-77
2022/09/12 10:22:17;;;;;;;5.38;3.65;;;;;;;36.30;28.41;101380.38;5249815;28;20029;-79
2022/09/12 10:24:51;;;;;;;4.63;3.22;;;;;;;35.79;28.54;101372.31;5245147;28;20075;-78
2022/09/12 10:27:27;;;;;;;6.25;3.63;;;;;;;35.04;28.45;101379.53;5249116;28;20017;-77
2022/09/12 10:29:58;;;;;;;6.97;3.90;;;;;;;35.06;28.61;101368.41;5248943;28;20032;-78
2022/09/12 10:32:36;;;;;;;6.00;3.80;;;;;;;33.60;31.15;101373.53;5249838;28;20024;-75
2022/09/12 10:35:18;;;;;;;6.10;4.15;;;;;;;32.90;32.55;101372.06;5253876;28;20032;-75
2022/09/12 10:37:55;;;;;;;7.63;4.22;;;;;;;33.61;31.63;101358.91;5252455;28;20033;-74
2022/09/12 10:40:31;;;;;;;5.65;3.33;;;;;;;33.47;31.76;101361.84;5248540;28;20108;-72
2022/09/12 10:43:16;;;;;;;6.68;3.17;;;;;;;32.33;33.37;101363.16;5254948;28;20036;-72
2022/09/12 10:45:47;;;;;;;7.93;4.32;;;;;;;30.57;33.60;101359.03;5251183;28;20021;-72
2022/09/12 10:48:30;;;;;;;4.32;3.28;;;;;;;32.11;33.27;101355.50;5252399;28;20075;-75
2022/09/12 10:51:01;;;;;;;9.73;3.35;;;;;;;30.68;34.48;101352.16;5255724;28;20029;-76
2022/09/12 10:53:45;;;;;;;4.90;3.35;;;;;;;32.03;33.40;101349.56;5254093;28;20020;-76
2022/09/12 10:56:23;;;;;;;6.10;3.70;;;;;;;30.41;35.22;101344.13;5250097;28;20124;-78
2022/09/12 10:59:07;;;;;;;11.30;3.00;;;;;;;31.55;34.54;101336.44;5253507;28;20171;-82
2022/09/12 11:01:45;;;;;;;8.10;3.00;;;;;;;31.57;33.41;101334.34;5250693;28;20078;-84
2022/09/12 11:04:51;;;;;;;4.40;3.03;;;;;;;31.73;33.91;101335.63;5254226;28;20103;-75
2022/09/12 11:07:34;;;;;;;5.70;3.30;;;;;;;30.59;34.40;101323.69;5254082;28;20035;-78
2022/09/12 11:10:32;;;;;;;4.60;2.50;;;;;;;31.28;34.40;101320.38;5251069;28;20065;-79
2022/09/12 11:13:15;;;;;;;4.28;2.78;;;;;;;31.48;33.46;101324.84;5253119;28;20037;-79
2022/09/12 11:16:09;;;;;;;5.55;3.10;;;;;;;31.54;33.73;101332.06;5252980;28;20792;-80
2022/09/12 11:18:43;;;;;;;3.38;2.67;;;;;;;30.70;33.62;101317.63;5253891;28;20066;-75
2022/09/12 11:21:48;;;;;;;5.20;2.72;;;;;;;30.13;36.11;101324.47;5251147;28;20067;-77
2022/09/12 11:24:35;;;;;;;4.22;3.53;;;;;;;29.34;36.77;101322.47;5252385;28;20025;-79
2022/09/12 11:27:25;;;;;;;4.28;2.45;;;;;;;29.85;37.20;101317.47;5250669;28;20037;-80
2022/09/12 11:30:00;;;;;;;3.80;2.03;;;;;;;28.88;36.94;101300.59;5265146;28;20029;-78
2022/09/12 11:32:46;;;;;;;2.72;1.92;;;;;;;29.81;35.65;101297.34;5253105;28;20074;-75
2022/09/12 11:35:23;;;;;;;3.00;2.08;;;;;;;29.89;35.56;101316.00;5253603;28;20033;-76
2022/09/12 11:38:25;;;;;;;2.58;1.90;;;;;;;30.12;35.09;101314.72;5253685;28;20109;-75
2022/09/12 11:41:23;;;;;;;2.03;1.65;;;;;;;30.24;34.89;101320.31;5247991;28;20061;-77
2022/09/12 11:44:00;;;;;;;4.25;1.80;;;;;;;29.69;35.38;101316.88;5252007;28;20017;-77
2022/09/12 11:46:37;;;;;;;2.67;1.83;;;;;;;30.05;34.60;101314.75;5252416;28;20403;-76
2022/09/12 11:49:18;;;;;;;3.38;1.80;;;;;;;29.55;35.75;101315.19;5248042;28;20103;-74
2022/09/12 11:51:59;;;;;;;3.13;1.88;;;;;;;29.70;36.27;101313.13;5252015;28;20047;-77